Xekmatt — OR2473 — position and weather

sailwx.info

Track history (hours):
 
Tides and Currents Weather Stations Pressure Air Temp Water Temp Dewpoint Dewpoint Depression Visibility Wind Speed Wind Dir Waves Ship Positions

Xekmatt

Last reported at 2015-Sep-01 20:31 UTC. Time now 2015-Sep-02 23:56 UTC.
Position N 39°15' W 009°25'.

Length 14 m.

Type: Sailing vessel. MMSI: 205247310.

Date/timePositionNaut miles runAvg speedWind from/ knotsBaromVisibWave heightAir tempDewpointWater temp
2015-Sep-01 20:31N 39°15' W 009°25'6 6.4
2015-Sep-01 19:33N 39°09' W 009°26'7 6.7
2015-Sep-01 18:33N 39°02' W 009°28'6 5.9
2015-Sep-01 17:33N 38°56' W 009°27'7 6.6
2015-Sep-01 16:33N 38°50' W 009°30'6 6.1
2015-Sep-01 15:33N 38°44' W 009°32'6 5.8
2015-Sep-01 14:33N 38°42' W 009°25'0 0.2
2015-Sep-01 13:31N 38°41' W 009°25'0 0.0
2015-Sep-01 12:28N 38°41' W 009°25'0 0.0
2015-Sep-01 11:25N 38°41' W 009°25'0 0.0
2015-Sep-01 10:28N 38°41' W 009°25'0 0.0
2015-Sep-01 09:22N 38°41' W 009°25'0 0.0
2015-Sep-01 08:28N 38°41' W 009°25'0 0.0
2015-Sep-01 07:31N 38°41' W 009°25'0 0.0
2015-Sep-01 06:31N 38°41' W 009°25'0 0.0
2015-Sep-01 05:07N 38°41' W 009°25'0 0.0
2015-Sep-01 04:28N 38°41' W 009°25'0 0.0
2015-Sep-01 03:25N 38°41' W 009°25'0 0.0
2015-Sep-01 02:31N 38°41' W 009°25'0 0.0
2015-Sep-01 01:31N 38°41' W 009°25'0 0.0
2015-Sep-01 00:31N 38°41' W 009°25'0 0.0
2015-Aug-31 23:31N 38°41' W 009°25'0 0.0
2015-Aug-31 22:31N 38°41' W 009°25'0 0.0
2015-Aug-31 21:25N 38°41' W 009°25'0 0.0
2015-Aug-31 20:31N 38°41' W 009°25'0 0.0
2015-Aug-31 19:16N 38°41' W 009°25'0 0.0
2015-Aug-31 18:31N 38°41' W 009°25'0 0.0
2015-Aug-31 17:28N 38°41' W 009°25'0 0.0
2015-Aug-31 16:07N 38°41' W 009°25'0 0.0
2015-Aug-31 15:31N 38°41' W 009°25'0 0.0
2015-Aug-31 14:31N 38°41' W 009°25'0 0.0
2015-Aug-31 13:28N 38°41' W 009°25'0 0.0
2015-Aug-31 12:28N 38°41' W 009°25'0 0.0
2015-Aug-31 11:31N 38°41' W 009°25'0 0.0
2015-Aug-31 10:31N 38°41' W 009°25'0 0.0
2015-Aug-31 09:28N 38°41' W 009°25'0 0.0
2015-Aug-31 08:28N 38°41' W 009°25'0 0.0
2015-Aug-31 07:31N 38°41' W 009°25'0 0.0
2015-Aug-31 06:22N 38°41' W 009°25'0 0.0
2015-Aug-31 05:28N 38°41' W 009°25'0 0.0
2015-Aug-31 03:22N 38°41' W 009°25'0 0.0
2015-Aug-31 02:07N 38°41' W 009°25'0 0.0
2015-Aug-31 01:31N 38°41' W 009°25'0 0.0
2015-Aug-31 00:28N 38°41' W 009°25'0 0.0
2015-Aug-30 23:31N 38°41' W 009°25'0 0.0
2015-Aug-30 22:28N 38°41' W 009°25'0 0.0
2015-Aug-30 21:10N 38°41' W 009°25'0 0.0
2015-Aug-30 19:31N 38°41' W 009°25'0 0.0
2015-Aug-30 18:29N 38°41' W 009°25'0 0.0
2015-Aug-30 17:28N 38°41' W 009°25'0 0.0
2015-Aug-30 16:31N 38°41' W 009°25'0 0.0
2015-Aug-30 15:28N 38°41' W 009°25'0 0.2
2015-Aug-30 14:26N 38°42' W 009°25'2 1.5
2015-Aug-30 13:23N 38°40' W 009°25'0 0.2
2015-Aug-30 12:30N 38°40' W 009°25'0 0.1
2015-Aug-30 11:33N 38°40' W 009°25'1 1.3
2015-Aug-30 10:32N 38°41' W 009°24'1 0.0
2015-Aug-29 17:33N 38°41' W 009°25'0 0.0
2015-Aug-29 16:15N 38°41' W 009°25'0 0.6
2015-Aug-29 15:33N 38°42' W 009°25'3 2.8
2015-Aug-29 14:33N 38°39' W 009°24'5 4.8
2015-Aug-29 13:33N 38°42' W 009°29'2 2.2
2015-Aug-29 12:33N 38°41' W 009°26'1 0.5
2015-Aug-29 11:34N 38°41' W 009°26'1 0.0
2015-Aug-28 16:10N 38°41' W 009°25'1 2.2
2015-Aug-28 15:33N 38°40' W 009°25'1 1.0
2015-Aug-28 14:33N 38°41' W 009°27'1 0.7
2015-Aug-28 13:33N 38°40' W 009°27'1 0.8
2015-Aug-28 12:33N 38°40' W 009°26'1 0.6
2015-Aug-28 11:33N 38°40' W 009°26'1 0.0
2015-Aug-26 18:33N 38°41' W 009°25'1 0.9
2015-Aug-26 17:33N 38°41' W 009°25'0 0.4
2015-Aug-26 16:33N 38°41' W 009°25'1 0.6
2015-Aug-26 15:26N 38°41' W 009°25'0 0.0
2015-Aug-26 14:32N 38°41' W 009°25'0 0.0
2015-Aug-26 13:26N 38°41' W 009°25'0 0.0
2015-Aug-26 12:24N 38°41' W 009°25'0 0.0
2015-Aug-26 11:33N 38°41' W 009°25'1 0.8
2015-Aug-26 10:33N 38°42' W 009°24'6 6.2
2015-Aug-26 09:33N 38°41' W 009°16'5 5.1
2015-Aug-26 08:33N 38°42' W 009°10'  
Track history (hours):
 
Tides and Currents Weather Stations Pressure Air Temp Water Temp Dewpoint Dewpoint Depression Visibility Wind Speed Wind Dir Waves Ship Positions

Xekmatt

Last reported at 2015-Sep-01 20:31 UTC. Time now 2015-Sep-02 23:56 UTC.
Position N 39°15' W 009°25'.

Length 14 m.

Type: Sailing vessel. MMSI: 205247310.

Date/timePositionNaut miles runAvg speedWind from/ knotsBaromVisibWave heightAir tempDewpointWater temp
2015-Sep-01 20:31N 39°15' W 009°25'6 6.4
2015-Sep-01 19:33N 39°09' W 009°26'7 6.7
2015-Sep-01 18:33N 39°02' W 009°28'6 5.9
2015-Sep-01 17:33N 38°56' W 009°27'7 6.6
2015-Sep-01 16:33N 38°50' W 009°30'6 6.1
2015-Sep-01 15:33N 38°44' W 009°32'6 5.8
2015-Sep-01 14:33N 38°42' W 009°25'0 0.2
2015-Sep-01 13:31N 38°41' W 009°25'0 0.0
2015-Sep-01 12:28N 38°41' W 009°25'0 0.0
2015-Sep-01 11:25N 38°41' W 009°25'0 0.0
2015-Sep-01 10:28N 38°41' W 009°25'0 0.0
2015-Sep-01 09:22N 38°41' W 009°25'0 0.0
2015-Sep-01 08:28N 38°41' W 009°25'0 0.0
2015-Sep-01 07:31N 38°41' W 009°25'0 0.0
2015-Sep-01 06:31N 38°41' W 009°25'0 0.0
2015-Sep-01 05:07N 38°41' W 009°25'0 0.0
2015-Sep-01 04:28N 38°41' W 009°25'0 0.0
2015-Sep-01 03:25N 38°41' W 009°25'0 0.0
2015-Sep-01 02:31N 38°41' W 009°25'0 0.0
2015-Sep-01 01:31N 38°41' W 009°25'0 0.0
2015-Sep-01 00:31N 38°41' W 009°25'0 0.0
2015-Aug-31 23:31N 38°41' W 009°25'0 0.0
2015-Aug-31 22:31N 38°41' W 009°25'0 0.0
2015-Aug-31 21:25N 38°41' W 009°25'0 0.0
2015-Aug-31 20:31N 38°41' W 009°25'0 0.0
2015-Aug-31 19:16N 38°41' W 009°25'0 0.0
2015-Aug-31 18:31N 38°41' W 009°25'0 0.0
2015-Aug-31 17:28N 38°41' W 009°25'0 0.0
2015-Aug-31 16:07N 38°41' W 009°25'0 0.0
2015-Aug-31 15:31N 38°41' W 009°25'0 0.0
2015-Aug-31 14:31N 38°41' W 009°25'0 0.0
2015-Aug-31 13:28N 38°41' W 009°25'0 0.0
2015-Aug-31 12:28N 38°41' W 009°25'0 0.0
2015-Aug-31 11:31N 38°41' W 009°25'0 0.0
2015-Aug-31 10:31N 38°41' W 009°25'0 0.0
2015-Aug-31 09:28N 38°41' W 009°25'0 0.0
2015-Aug-31 08:28N 38°41' W 009°25'0 0.0
2015-Aug-31 07:31N 38°41' W 009°25'0 0.0
2015-Aug-31 06:22N 38°41' W 009°25'0 0.0
2015-Aug-31 05:28N 38°41' W 009°25'0 0.0
2015-Aug-31 03:22N 38°41' W 009°25'0 0.0
2015-Aug-31 02:07N 38°41' W 009°25'0 0.0
2015-Aug-31 01:31N 38°41' W 009°25'0 0.0
2015-Aug-31 00:28N 38°41' W 009°25'0 0.0
2015-Aug-30 23:31N 38°41' W 009°25'0 0.0
2015-Aug-30 22:28N 38°41' W 009°25'0 0.0
2015-Aug-30 21:10N 38°41' W 009°25'0 0.0
2015-Aug-30 19:31N 38°41' W 009°25'0 0.0
2015-Aug-30 18:29N 38°41' W 009°25'0 0.0
2015-Aug-30 17:28N 38°41' W 009°25'0 0.0
2015-Aug-30 16:31N 38°41' W 009°25'0 0.0
2015-Aug-30 15:28N 38°41' W 009°25'0 0.2
2015-Aug-30 14:26N 38°42' W 009°25'2 1.5
2015-Aug-30 13:23N 38°40' W 009°25'0 0.2
2015-Aug-30 12:30N 38°40' W 009°25'0 0.1
2015-Aug-30 11:33N 38°40' W 009°25'1 1.3
2015-Aug-30 10:32N 38°41' W 009°24'1 0.0
2015-Aug-29 17:33N 38°41' W 009°25'0 0.0
2015-Aug-29 16:15N 38°41' W 009°25'0 0.6
2015-Aug-29 15:33N 38°42' W 009°25'3 2.8
2015-Aug-29 14:33N 38°39' W 009°24'5 4.8
2015-Aug-29 13:33N 38°42' W 009°29'2 2.2
2015-Aug-29 12:33N 38°41' W 009°26'1 0.5
2015-Aug-29 11:34N 38°41' W 009°26'1 0.0
2015-Aug-28 16:10N 38°41' W 009°25'1 2.2
2015-Aug-28 15:33N 38°40' W 009°25'1 1.0
2015-Aug-28 14:33N 38°41' W 009°27'1 0.7
2015-Aug-28 13:33N 38°40' W 009°27'1 0.8
2015-Aug-28 12:33N 38°40' W 009°26'1 0.6
2015-Aug-28 11:33N 38°40' W 009°26'1 0.0
2015-Aug-26 18:33N 38°41' W 009°25'1 0.9
2015-Aug-26 17:33N 38°41' W 009°25'0 0.4
2015-Aug-26 16:33N 38°41' W 009°25'1 0.6
2015-Aug-26 15:26N 38°41' W 009°25'0 0.0
2015-Aug-26 14:32N 38°41' W 009°25'0 0.0
2015-Aug-26 13:26N 38°41' W 009°25'0 0.0
2015-Aug-26 12:24N 38°41' W 009°25'0 0.0
2015-Aug-26 11:33N 38°41' W 009°25'1 0.8
2015-Aug-26 10:33N 38°42' W 009°24'6 6.2
2015-Aug-26 09:33N 38°41' W 009°16'5 5.1
2015-Aug-26 08:33N 38°42' W 009°10'  

Dump ship's entire track history